createdAt,value
2018-03-29T00:01:19.159Z,98872.34
2018-03-29T00:03:46.541Z,98860.36
2018-03-29T00:06:13.960Z,98856.36
2018-03-29T00:08:41.345Z,98873.52
2018-03-29T00:11:08.766Z,98869.11
2018-03-29T00:13:36.161Z,98873.87
2018-03-29T00:16:03.709Z,98867.84
2018-03-29T00:18:31.114Z,98865.82
2018-03-29T00:20:58.515Z,98888.45
2018-03-29T00:23:25.927Z,98894.05
2018-03-29T00:25:53.340Z,98883.89
2018-03-29T00:28:20.776Z,98892.78
2018-03-29T00:30:48.178Z,98905.37
2018-03-29T00:33:15.584Z,98908.78
2018-03-29T00:35:42.998Z,98922.40
2018-03-29T00:38:10.395Z,98922.45
2018-03-29T00:40:37.801Z,98930.20
2018-03-29T00:43:05.210Z,98940.89
2018-03-29T00:45:32.608Z,98948.37
2018-03-29T00:48:00.012Z,98953.08
2018-03-29T00:50:27.438Z,98949.19
2018-03-29T00:52:55.240Z,98959.21
2018-03-29T00:55:22.692Z,98965.62
2018-03-29T00:57:50.162Z,98962.58
2018-03-29T01:00:17.726Z,98975.97
2018-03-29T01:02:45.122Z,98983.36
2018-03-29T01:05:12.521Z,98980.97
2018-03-29T01:07:39.930Z,98989.95
2018-03-29T01:10:07.352Z,98995.47
2018-03-29T01:12:34.753Z,98992.03
2018-03-29T01:15:02.149Z,98995.89
2018-03-29T01:17:29.585Z,99000.67
2018-03-29T01:19:56.980Z,98998.20
2018-03-29T01:22:24.392Z,99009.08
2018-03-29T01:24:51.823Z,99006.34
2018-03-29T01:27:19.270Z,98996.45
2018-03-29T01:29:46.677Z,99000.38
2018-03-29T01:32:14.116Z,98999.18
2018-03-29T01:34:41.552Z,99004.81
2018-03-29T01:37:08.946Z,99014.73
2018-03-29T01:39:36.357Z,99017.81
2018-03-29T01:42:03.757Z,99018.25
2018-03-29T01:44:31.261Z,99018.34
2018-03-29T01:46:58.664Z,99027.02
2018-03-29T01:49:26.176Z,99024.36
2018-03-29T01:51:53.577Z,99034.05
2018-03-29T01:54:20.982Z,99036.22
2018-03-29T01:56:48.390Z,99041.20
2018-03-29T01:59:15.782Z,99040.94
2018-03-29T02:01:43.215Z,99040.25
2018-03-29T02:04:10.606Z,99048.35
2018-03-29T02:06:38.013Z,99057.14
2018-03-29T02:09:05.414Z,99064.36
2018-03-29T02:11:32.821Z,99062.83
2018-03-29T02:14:00.217Z,99057.09
2018-03-29T02:16:27.638Z,99070.55
2018-03-29T02:18:55.067Z,99067.33
2018-03-29T02:21:22.491Z,99063.96
2018-03-29T02:23:49.904Z,99075.34
2018-03-29T02:26:17.312Z,99071.58
2018-03-29T02:28:44.713Z,99082.53
2018-03-29T02:31:12.140Z,99080.28
2018-03-29T02:33:39.532Z,99078.52
2018-03-29T02:36:06.962Z,99080.21
2018-03-29T02:38:34.355Z,99071.30
2018-03-29T02:41:01.760Z,99073.74
2018-03-29T02:43:29.235Z,99081.05
2018-03-29T02:45:56.654Z,99082.33
2018-03-29T02:48:24.055Z,99089.99
2018-03-29T02:50:51.497Z,99088.55
2018-03-29T02:53:18.894Z,99088.67
2018-03-29T02:55:46.327Z,99095.05
2018-03-29T02:58:13.768Z,99091.48
2018-03-29T03:00:41.175Z,99096.13
2018-03-29T03:03:08.565Z,99094.13
2018-03-29T03:05:35.980Z,99095.97
2018-03-29T03:08:03.382Z,99097.53
2018-03-29T03:10:30.802Z,99103.11
2018-03-29T03:12:58.201Z,99105.52
2018-03-29T03:15:25.605Z,99106.36
2018-03-29T03:17:53.002Z,99110.22
2018-03-29T03:20:20.423Z,99116.87
2018-03-29T03:22:47.818Z,99118.92
2018-03-29T03:25:15.215Z,99121.98
2018-03-29T03:27:42.773Z,99117.20
2018-03-29T03:30:10.172Z,99129.36
2018-03-29T03:32:37.597Z,99137.74
2018-03-29T03:35:05.019Z,99141.48
2018-03-29T03:37:32.409Z,99138.70
2018-03-29T03:39:59.809Z,99146.21
2018-03-29T03:42:27.217Z,99148.54
2018-03-29T03:44:54.622Z,99151.59
2018-03-29T03:47:22.021Z,99165.92
2018-03-29T03:49:49.413Z,99163.27
2018-03-29T03:52:16.826Z,99170.54
2018-03-29T03:54:44.225Z,99173.91
2018-03-29T03:57:11.638Z,99172.34
2018-03-29T03:59:39.053Z,99175.44
2018-03-29T04:02:06.472Z,99175.88
2018-03-29T04:04:33.873Z,99183.17
2018-03-29T04:07:01.287Z,99195.83
2018-03-29T04:09:28.682Z,99190.97
2018-03-29T04:11:56.093Z,99190.20
2018-03-29T04:14:23.491Z,99201.01
2018-03-29T04:16:50.901Z,99197.39
2018-03-29T04:19:18.293Z,99206.98
2018-03-29T04:21:46.037Z,99204.66
2018-03-29T04:24:13.478Z,99215.06
2018-03-29T04:26:40.882Z,99215.86
2018-03-29T04:29:08.302Z,99221.16
2018-03-29T04:31:35.730Z,99212.33
2018-03-29T04:34:03.136Z,99224.89
2018-03-29T04:36:30.565Z,99234.75
2018-03-29T04:38:58.055Z,99237.29
2018-03-29T04:41:25.445Z,99241.95
2018-03-29T04:43:52.844Z,99242.36
2018-03-29T04:46:20.272Z,99238.09
2018-03-29T04:48:47.665Z,99245.84
2018-03-29T04:51:15.146Z,99245.05
2018-03-29T04:53:42.512Z,99248.73
2018-03-29T04:56:09.911Z,99243.52
2018-03-29T04:58:37.325Z,99243.80
2018-03-29T05:01:04.729Z,99247.37
2018-03-29T05:03:32.149Z,99243.05
2018-03-29T05:05:59.554Z,99253.52
2018-03-29T05:08:26.977Z,99247.83
2018-03-29T05:10:54.394Z,99253.41
2018-03-29T05:13:21.806Z,99254.61
2018-03-29T05:15:49.217Z,99251.24
2018-03-29T05:18:16.620Z,99257.10
2018-03-29T05:20:44.038Z,99257.06
2018-03-29T05:23:11.456Z,99252.00
2018-03-29T05:25:38.867Z,99255.78
2018-03-29T05:28:09.202Z,99253.41
2018-03-29T05:30:36.605Z,99257.74
2018-03-29T05:33:04.026Z,99266.95
2018-03-29T05:35:31.433Z,99274.34
2018-03-29T05:37:58.849Z,99273.73
2018-03-29T05:40:26.258Z,99274.74
2018-03-29T05:42:53.666Z,99284.19
2018-03-29T05:45:21.094Z,99285.14
2018-03-29T05:47:48.497Z,99284.94
2018-03-29T05:50:15.910Z,99282.48
2018-03-29T05:52:43.339Z,99280.48
2018-03-29T05:55:10.739Z,99283.01
2018-03-29T05:57:38.172Z,99280.44
2018-03-29T06:00:06.452Z,99275.75
2018-03-29T06:02:33.972Z,99272.25
2018-03-29T06:05:01.372Z,99273.94
2018-03-29T06:07:28.786Z,99283.17
2018-03-29T06:09:56.202Z,99278.95
2018-03-29T06:12:23.625Z,99277.50
2018-03-29T06:14:51.039Z,99282.08
2018-03-29T06:17:23.950Z,99286.05
2018-03-29T06:19:51.346Z,99292.13
2018-03-29T06:22:18.779Z,99298.19
2018-03-29T06:24:46.190Z,99312.87
2018-03-29T06:27:13.721Z,99316.80
2018-03-29T06:29:41.121Z,99314.87
2018-03-29T06:32:08.519Z,99324.08
2018-03-29T06:34:35.944Z,99331.47
2018-03-29T06:37:03.379Z,99324.43
2018-03-29T06:39:30.790Z,99324.86
2018-03-29T06:41:58.221Z,99322.41
2018-03-29T06:44:25.637Z,99327.12
2018-03-29T06:46:59.336Z,99325.63
2018-03-29T06:49:27.282Z,99330.65
2018-03-29T06:51:54.688Z,99334.30
2018-03-29T06:54:22.126Z,99335.26
2018-03-29T06:56:49.532Z,99334.74
2018-03-29T06:59:16.958Z,99333.94
2018-03-29T07:01:45.459Z,99332.59
2018-03-29T07:04:12.882Z,99332.02
2018-03-29T07:06:40.282Z,99336.81
2018-03-29T07:09:07.857Z,99336.74
2018-03-29T07:11:35.263Z,99339.27
2018-03-29T07:14:02.784Z,99341.05
2018-03-29T07:16:30.184Z,99336.95
2018-03-29T07:18:57.595Z,99338.53
2018-03-29T07:21:25.020Z,99342.03
2018-03-29T07:23:52.669Z,99339.11
2018-03-29T07:26:20.069Z,99342.20
2018-03-29T07:28:47.495Z,99339.95
2018-03-29T07:31:14.906Z,99338.50
2018-03-29T07:33:42.323Z,99337.00
2018-03-29T07:36:09.743Z,99333.17
2018-03-29T07:38:37.161Z,99333.97
2018-03-29T07:41:04.568Z,99331.69
2018-03-29T07:43:32.233Z,99331.65
2018-03-29T07:45:59.664Z,99336.66
2018-03-29T07:48:27.142Z,99332.11
2018-03-29T07:50:54.633Z,99336.69
2018-03-29T07:53:22.104Z,99331.73
2018-03-29T07:55:50.490Z,99337.47
2018-03-29T07:58:17.905Z,99339.06
2018-03-29T08:00:45.311Z,99337.87
2018-03-29T08:03:12.712Z,99337.80
2018-03-29T08:05:40.134Z,99347.50
2018-03-29T08:08:07.537Z,99345.37
2018-03-29T08:10:34.967Z,99343.55
2018-03-29T08:13:02.365Z,99339.04
2018-03-29T08:15:29.780Z,99342.59
2018-03-29T08:17:57.194Z,99347.34
2018-03-29T08:20:24.605Z,99346.96
2018-03-29T08:22:52.023Z,99350.47
2018-03-29T08:25:19.449Z,99352.50
2018-03-29T08:27:46.857Z,99353.21
2018-03-29T08:30:14.324Z,99357.50
2018-03-29T08:32:41.726Z,99359.70
2018-03-29T08:35:09.154Z,99355.13
2018-03-29T08:37:36.625Z,99360.44
2018-03-29T08:40:04.053Z,99361.14
2018-03-29T08:42:31.470Z,99360.50
2018-03-29T08:44:58.886Z,99359.70
2018-03-29T08:47:26.302Z,99357.83
2018-03-29T08:49:53.724Z,99360.70
2018-03-29T08:52:21.130Z,99356.34
2018-03-29T08:54:48.542Z,99364.08
2018-03-29T08:57:16.037Z,99366.05
2018-03-29T08:59:43.471Z,99369.92
2018-03-29T09:02:10.868Z,99366.59
2018-03-29T09:04:38.281Z,99379.32
2018-03-29T09:07:05.693Z,99368.89
2018-03-29T09:09:33.125Z,99372.81
2018-03-29T09:12:00.538Z,99376.31
2018-03-29T09:14:27.964Z,99382.42
2018-03-29T09:16:55.365Z,99380.35
2018-03-29T09:19:23.326Z,99379.38
2018-03-29T09:21:52.694Z,99390.03
2018-03-29T09:24:20.156Z,99388.02
2018-03-29T09:26:47.513Z,99398.27
2018-03-29T09:29:14.933Z,99400.02
2018-03-29T09:31:42.337Z,99395.77
2018-03-29T09:34:09.741Z,99403.22
2018-03-29T09:36:37.163Z,99399.44
2018-03-29T09:39:04.566Z,99403.19
2018-03-29T09:41:31.992Z,99400.56
2018-03-29T09:43:59.412Z,99411.28
2018-03-29T09:46:26.832Z,99413.55
2018-03-29T09:48:54.261Z,99406.59
2018-03-29T09:51:21.666Z,99405.61
2018-03-29T09:53:49.425Z,99406.76
2018-03-29T09:56:16.844Z,99414.59
2018-03-29T09:58:46.172Z,99413.28
2018-03-29T10:01:13.616Z,99403.39
2018-03-29T10:03:41.030Z,99400.05
2018-03-29T10:06:26.917Z,99407.34
2018-03-29T10:09:03.014Z,99403.06
2018-03-29T10:11:30.433Z,99409.53
2018-03-29T10:13:58.218Z,99411.00
2018-03-29T10:16:25.635Z,99415.23
2018-03-29T10:18:53.097Z,99412.14
2018-03-29T10:21:20.584Z,99408.94
2018-03-29T10:23:48.026Z,99404.02
2018-03-29T10:26:15.484Z,99405.97
2018-03-29T10:28:42.894Z,99406.19
2018-03-29T10:31:10.324Z,99406.57
2018-03-29T10:33:37.730Z,99410.44
2018-03-29T10:36:05.241Z,99413.90
2018-03-29T10:38:32.695Z,99406.66
2018-03-29T10:41:00.299Z,99420.97
2018-03-29T10:43:27.999Z,99414.50
2018-03-29T10:45:55.410Z,99410.81
2018-03-29T10:48:23.050Z,99416.44
2018-03-29T10:50:50.967Z,99418.36
2018-03-29T10:53:18.673Z,99416.66
2018-03-29T10:55:46.128Z,99416.28
2018-03-29T10:58:13.559Z,99418.10
2018-03-29T11:00:41.017Z,99421.03
2018-03-29T11:03:08.429Z,99419.53
2018-03-29T11:05:35.865Z,99421.37
2018-03-29T11:08:04.217Z,99415.14
2018-03-29T11:10:31.737Z,99415.67
2018-03-29T11:12:59.197Z,99413.87
2018-03-29T11:15:26.893Z,99418.28
2018-03-29T11:17:54.352Z,99414.63
2018-03-29T11:20:21.861Z,99415.58
2018-03-29T11:22:49.364Z,99414.49
2018-03-29T11:25:16.844Z,99418.06
2018-03-29T11:27:44.281Z,99418.06
2018-03-29T11:30:11.692Z,99415.02
2018-03-29T11:32:39.123Z,99421.34
2018-03-29T11:35:06.591Z,99418.59
2018-03-29T11:37:33.999Z,99412.10
2018-03-29T11:40:01.657Z,99412.28
2018-03-29T11:42:29.109Z,99398.37
2018-03-29T11:44:56.560Z,99411.63
2018-03-29T11:47:24.096Z,99402.80
2018-03-29T11:49:51.639Z,99410.84
2018-03-29T11:52:19.085Z,99415.60
2018-03-29T11:54:46.532Z,99405.42
2018-03-29T11:57:13.994Z,99408.55
2018-03-29T11:59:42.335Z,99404.88
2018-03-29T12:02:09.754Z,99410.02
2018-03-29T12:04:37.170Z,99404.63
2018-03-29T12:07:04.604Z,99405.95
2018-03-29T12:09:32.014Z,99397.06
2018-03-29T12:11:59.517Z,99401.21
2018-03-29T12:14:27.057Z,99397.39
2018-03-29T12:16:54.517Z,99396.86
2018-03-29T12:19:22.041Z,99390.44
2018-03-29T12:21:49.612Z,99390.30
2018-03-29T12:24:17.074Z,99401.30
2018-03-29T12:26:44.503Z,99412.63
2018-03-29T12:29:12.126Z,99413.34
2018-03-29T12:31:39.552Z,99410.12
2018-03-29T12:34:06.982Z,99417.64
2018-03-29T12:36:34.426Z,99417.17
2018-03-29T12:39:01.858Z,99416.81
2018-03-29T12:41:30.063Z,99415.09
2018-03-29T12:43:58.756Z,99414.15
2018-03-29T12:46:26.743Z,99413.84
2018-03-29T12:48:54.182Z,99409.81
2018-03-29T12:51:21.639Z,99408.44
2018-03-29T12:53:49.223Z,99409.88
2018-03-29T12:56:23.681Z,99405.27
2018-03-29T12:58:51.330Z,99397.47
2018-03-29T13:01:18.881Z,99395.39
2018-03-29T13:03:46.560Z,99395.05
2018-03-29T13:06:14.088Z,99405.67
2018-03-29T13:08:43.461Z,99404.34
2018-03-29T13:11:11.363Z,99394.77
2018-03-29T13:13:39.138Z,99396.98
2018-03-29T13:16:06.827Z,99395.86
2018-03-29T13:18:51.162Z,99394.71
2018-03-29T13:21:18.839Z,99391.09
2018-03-29T13:23:46.446Z,99389.35
2018-03-29T13:26:13.923Z,99388.78
2018-03-29T13:28:41.505Z,99383.91
2018-03-29T13:31:09.139Z,99383.66
2018-03-29T13:33:36.577Z,99376.54
2018-03-29T13:36:04.013Z,99378.88
2018-03-29T13:38:31.476Z,99377.50
2018-03-29T13:40:58.903Z,99381.41
2018-03-29T13:43:26.368Z,99368.97
2018-03-29T13:45:53.797Z,99372.81
2018-03-29T13:48:21.247Z,99372.12
2018-03-29T13:50:48.667Z,99370.52
2018-03-29T13:53:16.112Z,99387.30
2018-03-29T13:55:43.681Z,99374.30
2018-03-29T13:58:11.179Z,99374.91
2018-03-29T14:00:38.747Z,99377.95
2018-03-29T14:03:06.182Z,99378.88
2018-03-29T14:05:33.743Z,99383.30
2018-03-29T14:08:01.362Z,99381.33
2018-03-29T14:10:28.830Z,99380.81
2018-03-29T14:12:56.516Z,99371.52
2018-03-29T14:15:24.053Z,99369.19
2018-03-29T14:17:52.019Z,99378.61
2018-03-29T14:20:19.538Z,99379.64
2018-03-29T14:22:47.230Z,99380.55
2018-03-29T14:25:14.733Z,99383.34
2018-03-29T14:27:42.160Z,99397.09
2018-03-29T14:30:09.598Z,99393.78
2018-03-29T14:32:37.014Z,99398.94
2018-03-29T14:35:04.433Z,99403.98
2018-03-29T14:37:31.889Z,99399.98
2018-03-29T14:39:59.365Z,99399.87
2018-03-29T14:42:26.839Z,99399.05
2018-03-29T14:44:54.459Z,99399.41
2018-03-29T14:47:22.088Z,99405.45
2018-03-29T14:49:49.636Z,99412.05
2018-03-29T14:52:17.143Z,99419.32
2018-03-29T14:54:44.598Z,99412.67
2018-03-29T14:57:12.046Z,99419.41
2018-03-29T14:59:39.481Z,99417.86
2018-03-29T15:02:06.987Z,99427.28
2018-03-29T15:04:34.405Z,99425.21
2018-03-29T15:07:01.964Z,99426.50
2018-03-29T15:09:29.393Z,99410.64
2018-03-29T15:11:57.743Z,99422.71
2018-03-29T15:14:25.190Z,99419.72
2018-03-29T15:16:52.621Z,99417.52
2018-03-29T15:19:20.157Z,99417.59
2018-03-29T15:21:47.631Z,99419.31
2018-03-29T15:24:15.042Z,99421.83
2018-03-29T15:26:42.492Z,99423.91
2018-03-29T15:29:09.987Z,99425.80
2018-03-29T15:31:37.552Z,99416.55
2018-03-29T15:34:05.152Z,99417.61
2018-03-29T15:36:32.750Z,99417.26
2018-03-29T15:39:00.247Z,99418.14
2018-03-29T15:41:27.762Z,99419.76
2018-03-29T15:43:55.381Z,99422.84
2018-03-29T15:46:23.194Z,99424.45
2018-03-29T15:48:50.847Z,99429.27
2018-03-29T15:51:19.367Z,99428.66
2018-03-29T15:53:46.897Z,99425.66
2018-03-29T15:56:14.370Z,99422.31
2018-03-29T15:58:41.785Z,99432.91
2018-03-29T16:01:09.219Z,99438.70
2018-03-29T16:03:36.629Z,99434.13
2018-03-29T16:06:04.053Z,99433.55
2018-03-29T16:08:31.512Z,99437.68
2018-03-29T16:10:58.974Z,99435.50
2018-03-29T16:13:26.463Z,99441.06
2018-03-29T16:15:53.971Z,99439.05
2018-03-29T16:18:21.442Z,99444.77
2018-03-29T16:20:49.023Z,99447.47
2018-03-29T16:23:16.540Z,99448.02
2018-03-29T16:25:43.981Z,99451.58
2018-03-29T16:28:11.386Z,99450.07
2018-03-29T16:30:38.805Z,99458.38
2018-03-29T16:33:06.217Z,99454.34
2018-03-29T16:35:33.642Z,99461.34
2018-03-29T16:38:01.065Z,99453.60
2018-03-29T16:40:28.518Z,99456.75
2018-03-29T16:42:56.026Z,99456.90
2018-03-29T16:45:23.594Z,99456.23
2018-03-29T16:47:51.964Z,99457.69
2018-03-29T16:50:19.527Z,99459.06
2018-03-29T16:52:47.122Z,99452.97
2018-03-29T16:55:14.602Z,99458.63
2018-03-29T16:57:42.237Z,99457.55
2018-03-29T17:00:09.647Z,99462.25
2018-03-29T17:02:37.068Z,99468.06
2018-03-29T17:05:04.491Z,99473.84
2018-03-29T17:07:31.966Z,99457.26
2018-03-29T17:09:59.444Z,99474.53
2018-03-29T17:12:26.917Z,99475.16
2018-03-29T17:14:54.467Z,99480.28
2018-03-29T17:17:22.079Z,99479.94
2018-03-29T17:19:49.612Z,99482.87
2018-03-29T17:22:17.138Z,99485.59
2018-03-29T17:24:44.602Z,99496.79
2018-03-29T17:27:12.104Z,99501.78
2018-03-29T17:29:39.510Z,99504.95
2018-03-29T17:32:07.042Z,99507.56
2018-03-29T17:34:34.445Z,99511.45
2018-03-29T17:37:01.892Z,99512.97
2018-03-29T17:39:29.338Z,99512.44
2018-03-29T17:41:56.822Z,99519.19
2018-03-29T17:44:24.357Z,99515.95
2018-03-29T17:46:51.870Z,99520.70
2018-03-29T17:49:19.289Z,99519.40
2018-03-29T17:51:46.752Z,99524.58
2018-03-29T17:54:14.201Z,99522.64
2018-03-29T17:56:41.619Z,99529.92
2018-03-29T17:59:09.052Z,99533.73
2018-03-29T18:01:36.487Z,99533.59
2018-03-29T18:04:03.869Z,99523.28
2018-03-29T18:06:31.283Z,99524.62
2018-03-29T18:08:58.770Z,99523.27
2018-03-29T18:11:26.314Z,99525.59
2018-03-29T18:13:53.780Z,99524.38
2018-03-29T18:16:21.703Z,99535.14
2018-03-29T18:18:49.181Z,99531.09
2018-03-29T18:21:16.712Z,99532.95
2018-03-29T18:23:44.125Z,99527.89
2018-03-29T18:26:11.576Z,99536.11
2018-03-29T18:28:38.981Z,99545.81
2018-03-29T18:31:06.414Z,99543.36
2018-03-29T18:33:33.833Z,99548.33
2018-03-29T18:36:01.296Z,99553.72
2018-03-29T18:38:28.884Z,99558.11
2018-03-29T18:40:56.322Z,99558.39
2018-03-29T18:43:23.885Z,99566.73
2018-03-29T18:45:51.561Z,99571.28
2018-03-29T18:48:18.959Z,99577.20
2018-03-29T18:50:46.366Z,99585.26
2018-03-29T18:53:13.776Z,99589.20
2018-03-29T18:55:41.178Z,99590.80
2018-03-29T18:58:08.607Z,99594.38
2018-03-29T19:00:36.005Z,99592.33
2018-03-29T19:03:03.429Z,99600.01
2018-03-29T19:05:30.831Z,99605.39
2018-03-29T19:07:58.258Z,99611.06
2018-03-29T19:10:25.688Z,99610.65
2018-03-29T19:12:53.220Z,99622.38
2018-03-29T19:15:21.566Z,99613.08
2018-03-29T19:17:49.279Z,99620.67
2018-03-29T19:20:16.716Z,99617.65
2018-03-29T19:22:44.124Z,99618.33
2018-03-29T19:25:11.537Z,99624.12
2018-03-29T19:27:39.141Z,99616.48
2018-03-29T19:30:06.514Z,99622.56
2018-03-29T19:32:34.110Z,99620.51
2018-03-29T19:35:01.528Z,99616.76
2018-03-29T19:37:28.954Z,99628.58
2018-03-29T19:39:56.355Z,99629.66
2018-03-29T19:42:23.773Z,99631.48
2018-03-29T19:44:51.305Z,99631.27
2018-03-29T19:47:18.927Z,99628.54
2018-03-29T19:49:46.384Z,99631.41
2018-03-29T19:52:13.809Z,99624.06
2018-03-29T19:54:41.222Z,99628.64
2018-03-29T19:57:08.634Z,99634.16
2018-03-29T19:59:36.068Z,99641.58
2018-03-29T20:02:03.510Z,99641.47
2018-03-29T20:04:31.060Z,99639.80
2018-03-29T20:06:58.534Z,99640.28
2018-03-29T20:09:25.976Z,99638.52
2018-03-29T20:11:53.371Z,99642.50
2018-03-29T20:14:20.777Z,99640.73
2018-03-29T20:16:48.421Z,99643.78
2018-03-29T20:19:15.757Z,99646.86
2018-03-29T20:21:43.214Z,99642.52
2018-03-29T20:24:10.626Z,99645.36
2018-03-29T20:26:38.051Z,99643.61
2018-03-29T20:29:05.455Z,99640.25
2018-03-29T20:31:32.854Z,99641.08
2018-03-29T20:34:00.334Z,99637.40
2018-03-29T20:36:27.779Z,99635.98
2018-03-29T20:38:55.270Z,99639.52
2018-03-29T20:41:23.121Z,99640.78
2018-03-29T20:43:51.361Z,99644.97
2018-03-29T20:46:18.864Z,99644.80
2018-03-29T20:48:46.436Z,99641.91
2018-03-29T20:51:13.881Z,99642.72
2018-03-29T20:53:41.461Z,99644.56
2018-03-29T20:56:08.871Z,99637.18
2018-03-29T20:58:36.278Z,99644.57
2018-03-29T21:01:03.693Z,99642.54
2018-03-29T21:03:31.138Z,99640.45
2018-03-29T21:05:58.545Z,99642.63
2018-03-29T21:08:25.978Z,99636.75
2018-03-29T21:10:53.473Z,99629.92
2018-03-29T21:13:21.093Z,99639.25
2018-03-29T21:15:48.529Z,99633.17
2018-03-29T21:18:16.199Z,99632.12
2018-03-29T21:20:43.618Z,99631.09
2018-03-29T21:23:11.030Z,99631.36
2018-03-29T21:25:38.467Z,99627.42
2018-03-29T21:28:05.877Z,99627.08
2018-03-29T21:30:33.335Z,99634.08
2018-03-29T21:33:00.861Z,99638.73
2018-03-29T21:35:28.393Z,99637.89
2018-03-29T21:37:55.845Z,99642.34
2018-03-29T21:40:23.431Z,99641.55
2018-03-29T21:42:50.909Z,99641.76
2018-03-29T21:45:18.426Z,99648.53
2018-03-29T21:47:45.833Z,99640.30
2018-03-29T21:50:13.260Z,99637.02
2018-03-29T21:52:40.693Z,99644.05
2018-03-29T21:55:08.102Z,99640.95
2018-03-29T21:57:35.533Z,99630.84
2018-03-29T22:00:03.053Z,99631.34
2018-03-29T22:02:30.479Z,99632.63
2018-03-29T22:04:58.162Z,99628.47
2018-03-29T22:07:25.586Z,99627.77
2018-03-29T22:09:53.087Z,99633.41
2018-03-29T22:12:20.912Z,99632.95
2018-03-29T22:14:48.344Z,99635.23
2018-03-29T22:17:15.777Z,99635.33
2018-03-29T22:19:43.185Z,99640.16
2018-03-29T22:22:10.602Z,99636.66
2018-03-29T22:24:38.009Z,99630.25
2018-03-29T22:27:05.413Z,99632.42
2018-03-29T22:29:32.838Z,99638.92
2018-03-29T22:32:00.238Z,99639.36
2018-03-29T22:34:27.657Z,99643.22
2018-03-29T22:36:55.058Z,99649.23
2018-03-29T22:39:22.486Z,99650.28
2018-03-29T22:41:49.893Z,99658.14
2018-03-29T22:44:17.324Z,99651.91
2018-03-29T22:46:44.756Z,99654.56
2018-03-29T22:49:12.173Z,99659.63
2018-03-29T22:51:39.574Z,99653.05
2018-03-29T22:54:06.994Z,99652.51
2018-03-29T22:56:34.398Z,99650.09
2018-03-29T22:59:01.827Z,99650.23
2018-03-29T23:01:29.303Z,99654.41
2018-03-29T23:03:56.737Z,99652.33
2018-03-29T23:06:24.216Z,99645.92
2018-03-29T23:08:51.667Z,99657.21
2018-03-29T23:11:19.125Z,99650.80
2018-03-29T23:13:46.593Z,99655.63
2018-03-29T23:16:14.011Z,99656.42
2018-03-29T23:18:41.433Z,99661.23
2018-03-29T23:21:08.901Z,99656.89
2018-03-29T23:23:36.261Z,99658.84
2018-03-29T23:26:03.667Z,99652.42
2018-03-29T23:28:31.082Z,99659.94
2018-03-29T23:30:58.487Z,99654.58
2018-03-29T23:33:25.908Z,99650.98
2018-03-29T23:35:53.429Z,99663.31
2018-03-29T23:38:20.920Z,99654.42
2018-03-29T23:40:48.325Z,99655.61
2018-03-29T23:43:15.755Z,99653.78
2018-03-29T23:45:43.152Z,99654.08
2018-03-29T23:48:10.569Z,99653.45
2018-03-29T23:50:37.979Z,99648.31
2018-03-29T23:53:05.534Z,99642.47
2018-03-29T23:55:32.938Z,99645.34
2018-03-29T23:58:12.114Z,99640.63
